Terminal Aerodrome Forecast
Issued by NWS Cleveland, OH

Home | Current Version | Previous Version | Text Only | Print | Product List | Glossary On
Versions: 1 2 3 4 5 6 7 8 9 10 11 12 13 14 15 16 17 18 19 20 21 22
115
FTUS41 KCLE 171739
TAFMFD
TAF
KMFD 171739Z 1718/1818 23012G20KT P6SM SCT025 BKN045
     FM172100 24012KT P6SM BKN018
     FM180200 25009KT 5SM BR VCSH OVC008
     FM180600 25009KT 3SM BR OVC003
     FM181600 27008KT 6SM BR OVC007=

USA.gov is the U.S. government's official web portal to all federal, state and local government web resources and services.